createdAt,value
2022-09-26T00:01:15.333Z,10.47
2022-09-26T00:03:47.091Z,10.46
2022-09-26T00:06:16.128Z,10.50
2022-09-26T00:08:42.676Z,10.52
2022-09-26T00:11:11.246Z,10.53
2022-09-26T00:13:39.617Z,10.55
2022-09-26T00:16:07.567Z,10.53
2022-09-26T00:18:34.549Z,10.54
2022-09-26T00:21:08.624Z,10.53
2022-09-26T00:23:35.571Z,10.55
2022-09-26T00:26:02.137Z,10.56
2022-09-26T00:28:28.952Z,10.60
2022-09-26T00:30:56.676Z,10.57
2022-09-26T00:33:24.305Z,10.58
2022-09-26T00:35:55.575Z,10.59
2022-09-26T00:38:23.002Z,10.58
2022-09-26T00:40:50.586Z,10.56
2022-09-26T00:43:40.709Z,10.54
2022-09-26T00:46:39.997Z,10.53
2022-09-26T00:49:20.285Z,10.44
2022-09-26T00:51:53.034Z,10.43
2022-09-26T00:54:20.289Z,10.40
2022-09-26T00:56:50.520Z,10.36
2022-09-26T00:59:27.245Z,10.38
2022-09-26T01:01:56.300Z,10.33
2022-09-26T01:04:25.734Z,10.32
2022-09-26T01:06:52.448Z,10.35
2022-09-26T01:09:20.294Z,10.37
2022-09-26T01:11:46.945Z,10.36
2022-09-26T01:14:14.021Z,10.34
2022-09-26T01:16:44.703Z,10.37
2022-09-26T01:19:52.814Z,10.35
2022-09-26T01:22:59.762Z,10.39
2022-09-26T01:26:00.113Z,10.39
2022-09-26T01:28:48.997Z,10.38
2022-09-26T01:31:33.606Z,10.43
2022-09-26T01:34:20.283Z,10.48
2022-09-26T01:36:55.436Z,10.46
2022-09-26T01:39:57.748Z,10.43
2022-09-26T01:42:42.674Z,10.46
2022-09-26T01:45:19.900Z,10.43
2022-09-26T01:48:03.844Z,10.46
2022-09-26T01:51:07.954Z,10.51
2022-09-26T01:53:49.711Z,10.48
2022-09-26T01:56:22.373Z,10.49
2022-09-26T01:58:55.275Z,10.45
2022-09-26T02:01:24.552Z,10.48
2022-09-26T02:03:58.798Z,10.52
2022-09-26T02:06:33.916Z,10.53
2022-09-26T02:09:09.355Z,10.46
2022-09-26T02:11:42.362Z,10.48
2022-09-26T02:14:36.614Z,10.49
2022-09-26T02:17:16.777Z,10.51
2022-09-26T02:19:58.904Z,10.48
2022-09-26T02:22:44.099Z,10.52
2022-09-26T02:25:11.769Z,10.53
2022-09-26T02:27:40.995Z,10.49
2022-09-26T02:30:08.181Z,10.49
2022-09-26T02:32:36.652Z,10.47
2022-09-26T02:35:33.907Z,10.47
2022-09-26T02:38:00.835Z,10.53
2022-09-26T02:40:42.286Z,10.57
2022-09-26T02:43:32.933Z,10.58
2022-09-26T02:46:12.085Z,10.63
2022-09-26T02:48:58.813Z,10.46
2022-09-26T02:51:59.580Z,10.41
2022-09-26T02:54:32.356Z,10.41
2022-09-26T02:57:09.076Z,10.37
2022-09-26T02:59:43.632Z,10.32
2022-09-26T03:02:35.823Z,10.33
2022-09-26T03:05:10.126Z,10.34
2022-09-26T03:07:43.498Z,10.33
2022-09-26T03:10:13.019Z,10.34
2022-09-26T03:12:40.540Z,10.28
2022-09-26T03:15:09.448Z,10.27
2022-09-26T03:17:41.094Z,10.31
2022-09-26T03:20:14.790Z,10.26
2022-09-26T03:22:45.210Z,10.19
2022-09-26T03:25:20.315Z,10.17
2022-09-26T03:27:47.996Z,10.14
2022-09-26T03:30:17.003Z,10.16
2022-09-26T03:32:44.727Z,10.18
2022-09-26T03:35:11.337Z,10.20
2022-09-26T03:37:38.218Z,10.20
2022-09-26T03:40:06.922Z,10.17
2022-09-26T03:42:34.078Z,10.22
2022-09-26T03:45:01.595Z,10.22
2022-09-26T03:47:29.010Z,10.27
2022-09-26T03:49:56.175Z,10.27
2022-09-26T03:52:24.999Z,10.27
2022-09-26T03:54:54.404Z,10.40
2022-09-26T03:57:21.315Z,10.38
2022-09-26T03:59:50.573Z,10.36
2022-09-26T04:02:17.347Z,10.38
2022-09-26T04:04:44.062Z,10.36
2022-09-26T04:07:10.724Z,10.33
2022-09-26T04:09:37.370Z,10.30
2022-09-26T04:12:07.985Z,10.28
2022-09-26T04:14:35.884Z,10.44
2022-09-26T04:17:02.436Z,10.43
2022-09-26T04:19:29.003Z,10.46
2022-09-26T04:21:55.590Z,10.41
2022-09-26T04:24:22.314Z,10.36
2022-09-26T04:26:49.050Z,10.30
2022-09-26T04:29:16.341Z,10.21
2022-09-26T04:31:43.893Z,10.15
2022-09-26T04:34:11.599Z,10.05
2022-09-26T04:36:38.662Z,9.99
2022-09-26T04:39:05.520Z,9.95
2022-09-26T04:41:32.488Z,9.92
2022-09-26T04:44:00.379Z,9.91
2022-09-26T04:46:31.894Z,9.94
2022-09-26T04:49:00.320Z,9.93
2022-09-26T04:51:28.071Z,9.97
2022-09-26T04:53:55.493Z,9.96
2022-09-26T04:56:24.125Z,9.90
2022-09-26T04:58:51.574Z,9.92
2022-09-26T05:03:59.036Z,9.95
2022-09-26T05:06:25.928Z,10.11
2022-09-26T05:08:52.602Z,10.05
2022-09-26T05:11:21.668Z,10.05
2022-09-26T05:13:53.722Z,10.05
2022-09-26T05:16:21.701Z,9.96
2022-09-26T05:18:52.423Z,9.85
2022-09-26T05:21:19.192Z,9.79
2022-09-26T05:24:04.207Z,9.74
2022-09-26T05:26:36.503Z,9.72
2022-09-26T05:29:08.473Z,9.70
2022-09-26T05:31:38.109Z,9.66
2022-09-26T05:34:07.470Z,9.64
2022-09-26T05:36:34.654Z,9.64
2022-09-26T05:39:03.832Z,9.59
2022-09-26T05:41:31.894Z,9.50
2022-09-26T05:43:58.738Z,9.46
2022-09-26T05:46:27.161Z,9.45
2022-09-26T05:48:55.535Z,9.45
2022-09-26T05:51:23.537Z,9.62
2022-09-26T05:53:50.304Z,9.60
2022-09-26T05:56:19.201Z,9.68
2022-09-26T05:58:47.297Z,9.53
2022-09-26T06:01:16.636Z,9.56
2022-09-26T06:03:44.828Z,9.56
2022-09-26T06:06:17.122Z,9.50
2022-09-26T06:08:44.284Z,9.50
2022-09-26T06:11:13.933Z,9.44
2022-09-26T06:13:45.828Z,9.44
2022-09-26T06:16:15.167Z,9.45
2022-09-26T06:18:42.094Z,9.47
2022-09-26T06:21:10.913Z,9.50
2022-09-26T06:23:38.149Z,9.52
2022-09-26T06:26:08.378Z,9.56
2022-09-26T06:28:38.963Z,9.58
2022-09-26T06:31:09.127Z,9.64
2022-09-26T06:33:35.653Z,9.75
2022-09-26T06:36:07.975Z,9.80
2022-09-26T06:38:35.305Z,9.75
2022-09-26T06:41:04.034Z,9.96
2022-09-26T06:43:31.416Z,10.04
2022-09-26T06:45:57.944Z,10.10
2022-09-26T06:48:27.310Z,10.16
2022-09-26T06:50:58.611Z,10.21
2022-09-26T06:53:25.217Z,10.22
2022-09-26T06:55:51.828Z,10.26
2022-09-26T06:58:18.993Z,10.23
2022-09-26T07:00:48.291Z,10.28
2022-09-26T07:03:17.583Z,10.35
2022-09-26T07:05:45.381Z,10.40
2022-09-26T07:08:11.942Z,10.64
2022-09-26T07:10:43.124Z,10.79
2022-09-26T07:13:10.210Z,10.91
2022-09-26T07:15:37.392Z,10.97
2022-09-26T07:18:06.427Z,10.98
2022-09-26T07:20:40.337Z,11.03
2022-09-26T07:23:10.078Z,11.04
2022-09-26T07:25:39.481Z,11.03
2022-09-26T07:28:07.443Z,11.02
2022-09-26T07:30:34.562Z,11.02
2022-09-26T07:33:05.300Z,10.98
2022-09-26T07:35:33.430Z,10.95
2022-09-26T07:38:03.185Z,11.01
2022-09-26T07:40:30.078Z,11.05
2022-09-26T07:43:19.111Z,11.32
2022-09-26T07:46:05.352Z,11.55
2022-09-26T07:48:50.485Z,11.68
2022-09-26T07:51:17.042Z,11.70
2022-09-26T07:53:43.432Z,11.68
2022-09-26T07:56:10.616Z,11.74
2022-09-26T07:58:39.706Z,11.94
2022-09-26T08:01:11.585Z,12.13
2022-09-26T08:03:39.611Z,12.27
2022-09-26T08:06:06.689Z,12.32
2022-09-26T08:08:33.538Z,12.48
2022-09-26T08:11:04.026Z,12.68
2022-09-26T08:13:32.287Z,12.83
2022-09-26T08:16:06.100Z,12.95
2022-09-26T08:18:36.645Z,13.13
2022-09-26T08:21:06.791Z,13.22
2022-09-26T08:23:38.513Z,13.25
2022-09-26T08:26:11.031Z,13.29
2022-09-26T08:28:38.175Z,13.35
2022-09-26T08:31:06.406Z,13.34
2022-09-26T08:33:35.288Z,13.38
2022-09-26T08:36:06.977Z,13.50
2022-09-26T08:38:35.554Z,13.52
2022-09-26T08:41:36.535Z,13.71
2022-09-26T08:44:28.130Z,13.78
2022-09-26T08:47:06.379Z,13.95
2022-09-26T08:49:40.325Z,14.01
2022-09-26T08:52:20.366Z,14.02
2022-09-26T08:54:47.744Z,14.23
2022-09-26T08:57:44.845Z,14.43
2022-09-26T09:00:19.356Z,14.25
2022-09-26T09:03:01.549Z,14.03
2022-09-26T09:05:39.428Z,14.21
2022-09-26T09:08:16.299Z,14.41
2022-09-26T09:11:20.911Z,14.54
2022-09-26T09:14:01.599Z,14.42
2022-09-26T09:16:37.004Z,14.36
2022-09-26T09:19:19.837Z,14.19
2022-09-26T09:22:09.821Z,14.61
2022-09-26T09:25:05.636Z,14.55
2022-09-26T09:27:59.333Z,14.46
2022-09-26T09:30:45.954Z,14.29
2022-09-26T09:33:31.193Z,14.19
2022-09-26T09:36:07.083Z,14.32
2022-09-26T09:38:37.882Z,14.32
2022-09-26T09:41:09.186Z,14.41
2022-09-26T09:44:10.821Z,14.55
2022-09-26T09:46:43.105Z,14.51
2022-09-26T09:49:09.640Z,14.62
2022-09-26T09:52:13.807Z,14.90
2022-09-26T09:54:51.973Z,15.24
2022-09-26T09:57:49.032Z,15.23
2022-09-26T10:00:25.358Z,15.29
2022-09-26T10:03:02.699Z,15.48
2022-09-26T10:05:39.265Z,15.21
2022-09-26T10:08:15.768Z,15.17
2022-09-26T10:11:11.541Z,15.05
2022-09-26T10:13:42.561Z,15.00
2022-09-26T10:16:15.395Z,15.51
2022-09-26T10:19:03.617Z,15.99
2022-09-26T10:21:35.185Z,16.38
2022-09-26T10:24:06.787Z,16.43
2022-09-26T10:26:36.428Z,16.03
2022-09-26T10:29:25.335Z,15.92
2022-09-26T10:31:58.561Z,15.98
2022-09-26T10:34:28.114Z,16.32
2022-09-26T10:36:55.967Z,16.38
2022-09-26T10:39:48.437Z,16.50
2022-09-26T10:42:23.049Z,16.92
2022-09-26T10:44:50.868Z,17.03
2022-09-26T10:47:23.418Z,17.43
2022-09-26T10:50:16.577Z,17.12
2022-09-26T10:52:56.080Z,16.90
2022-09-26T10:55:46.008Z,16.26
2022-09-26T10:58:21.088Z,15.88
2022-09-26T11:00:50.574Z,15.75
2022-09-26T11:03:32.440Z,15.61
2022-09-26T11:06:01.789Z,15.60
2022-09-26T11:08:33.981Z,15.87
2022-09-26T11:11:04.137Z,16.09
2022-09-26T11:13:40.117Z,16.09
2022-09-26T11:16:13.115Z,15.59
2022-09-26T11:18:48.362Z,15.75
2022-09-26T11:21:36.712Z,15.97
2022-09-26T11:24:21.338Z,16.35
2022-09-26T11:26:54.156Z,16.77
2022-09-26T11:29:39.911Z,16.88
2022-09-26T11:32:06.453Z,16.94
2022-09-26T11:34:35.123Z,17.07
2022-09-26T11:37:17.158Z,16.69
2022-09-26T11:39:58.523Z,16.46
2022-09-26T11:42:43.855Z,16.65
2022-09-26T11:45:22.901Z,16.65
2022-09-26T11:48:12.872Z,16.31
2022-09-26T11:50:56.552Z,16.16
2022-09-26T11:53:42.343Z,16.27
2022-09-26T11:56:26.753Z,16.38
2022-09-26T11:58:59.644Z,16.50
2022-09-26T12:01:55.054Z,16.33
2022-09-26T12:04:21.671Z,16.37
2022-09-26T12:06:51.391Z,16.54
2022-09-26T12:09:36.062Z,16.40
2022-09-26T12:12:44.735Z,16.33
2022-09-26T12:15:17.638Z,16.29
2022-09-26T12:17:54.267Z,16.47
2022-09-26T12:20:39.980Z,16.47
2022-09-26T12:23:28.379Z,16.20
2022-09-26T12:26:10.549Z,16.26
2022-09-26T12:29:03.038Z,16.20
2022-09-26T12:31:40.541Z,16.24
2022-09-26T12:34:14.368Z,16.29
2022-09-26T12:37:06.638Z,16.30
2022-09-26T12:39:55.403Z,16.21
2022-09-26T12:42:52.116Z,15.87
2022-09-26T12:45:57.090Z,15.87
2022-09-26T12:48:32.659Z,15.94
2022-09-26T12:51:20.405Z,15.86
2022-09-26T12:54:06.505Z,15.65
2022-09-26T12:56:51.915Z,15.55
2022-09-26T12:59:41.216Z,15.45
2022-09-26T13:02:28.629Z,15.44
2022-09-26T13:05:23.653Z,15.34
2022-09-26T13:08:27.977Z,15.36
2022-09-26T13:11:12.563Z,15.28
2022-09-26T13:13:47.318Z,15.12
2022-09-26T13:16:37.264Z,15.00
2022-09-26T13:19:34.764Z,14.56
2022-09-26T13:22:06.026Z,13.76
2022-09-26T13:24:59.455Z,13.32
2022-09-26T13:27:37.401Z,13.28
2022-09-26T13:30:08.283Z,13.30
2022-09-26T13:32:41.735Z,13.61
2022-09-26T13:35:30.122Z,13.92
2022-09-26T13:38:14.255Z,14.46
2022-09-26T13:40:43.775Z,14.79
2022-09-26T13:43:24.455Z,14.57
2022-09-26T13:46:20.604Z,14.26
2022-09-26T13:49:02.694Z,14.10
2022-09-26T13:51:49.956Z,14.02
2022-09-26T13:54:26.991Z,14.13
2022-09-26T13:56:54.439Z,14.44
2022-09-26T13:59:23.165Z,14.60
2022-09-26T14:02:25.242Z,14.68
2022-09-26T14:05:13.616Z,14.89
2022-09-26T14:07:58.780Z,15.10
2022-09-26T14:10:25.252Z,15.18
2022-09-26T14:13:25.438Z,15.18
2022-09-26T14:15:57.407Z,15.31
2022-09-26T14:18:53.914Z,15.24
2022-09-26T14:21:38.320Z,15.23
2022-09-26T14:24:32.651Z,15.16
2022-09-26T14:27:42.149Z,15.10
2022-09-26T14:30:30.777Z,14.99
2022-09-26T14:33:04.985Z,15.02
2022-09-26T14:35:36.275Z,15.03
2022-09-26T14:38:13.571Z,14.90
2022-09-26T14:40:56.700Z,15.00
2022-09-26T14:43:27.396Z,15.11
2022-09-26T14:46:09.237Z,15.41
2022-09-26T14:48:40.025Z,15.44
2022-09-26T14:51:24.987Z,14.96
2022-09-26T14:54:05.974Z,15.06
2022-09-26T14:56:47.554Z,15.16
2022-09-26T14:59:17.031Z,15.26
2022-09-26T15:01:45.324Z,15.20
2022-09-26T15:04:19.348Z,15.02
2022-09-26T15:06:52.915Z,14.94
2022-09-26T15:09:42.241Z,14.63
2022-09-26T15:12:15.340Z,14.23
2022-09-26T15:14:49.820Z,14.13
2022-09-26T15:17:27.616Z,14.35
2022-09-26T15:19:57.229Z,14.17
2022-09-26T15:22:25.810Z,14.05
2022-09-26T15:25:07.381Z,14.03
2022-09-26T15:27:34.111Z,14.05
2022-09-26T15:30:17.955Z,13.93
2022-09-26T15:32:47.793Z,14.24
2022-09-26T15:35:15.540Z,14.54
2022-09-26T15:37:43.218Z,14.78
2022-09-26T15:40:25.668Z,14.99
2022-09-26T15:43:16.013Z,14.95
2022-09-26T15:45:46.334Z,14.84
2022-09-26T15:48:18.899Z,14.62
2022-09-26T15:50:51.769Z,14.59
2022-09-26T15:53:39.650Z,14.29
2022-09-26T15:56:13.788Z,14.16
2022-09-26T15:58:58.760Z,14.07
2022-09-26T16:01:29.043Z,14.03
2022-09-26T16:03:57.395Z,14.05
2022-09-26T16:06:27.890Z,13.95
2022-09-26T16:08:59.697Z,13.93
2022-09-26T16:11:27.433Z,14.12
2022-09-26T16:13:56.514Z,14.24
2022-09-26T16:16:31.729Z,14.29
2022-09-26T16:19:05.234Z,14.31
2022-09-26T16:21:36.309Z,14.23
2022-09-26T16:24:31.248Z,14.03
2022-09-26T16:26:58.019Z,13.97
2022-09-26T16:29:34.740Z,13.75
2022-09-26T16:32:17.964Z,13.67
2022-09-26T16:34:49.048Z,13.54
2022-09-26T16:37:21.793Z,13.45
2022-09-26T16:39:58.967Z,13.35
2022-09-26T16:42:32.717Z,13.26
2022-09-26T16:45:05.370Z,13.18
2022-09-26T16:47:50.793Z,13.13
2022-09-26T16:50:33.160Z,13.07
2022-09-26T16:53:11.435Z,12.98
2022-09-26T16:55:37.983Z,12.91
2022-09-26T16:58:07.763Z,12.91
2022-09-26T17:00:54.111Z,12.93
2022-09-26T17:03:22.785Z,12.92
2022-09-26T17:09:36.607Z,12.81
2022-09-26T17:12:16.509Z,12.86
2022-09-26T17:15:02.003Z,12.87
2022-09-26T17:17:42.019Z,12.85
2022-09-26T17:20:30.162Z,12.93
2022-09-26T17:23:11.948Z,13.02
2022-09-26T17:26:00.783Z,13.06
2022-09-26T17:36:05.331Z,12.89
2022-09-26T17:38:38.916Z,13.02
2022-09-26T17:44:26.039Z,13.01
2022-09-26T17:47:15.925Z,13.00
2022-09-26T17:49:47.021Z,12.98
2022-09-26T17:52:39.352Z,12.98
2022-09-26T17:55:14.056Z,12.88
2022-09-26T17:58:13.466Z,12.90
2022-09-26T18:04:42.739Z,12.92
2022-09-26T18:07:19.323Z,12.96
2022-09-26T18:09:55.784Z,12.87
2022-09-26T18:12:27.805Z,12.74
2022-09-26T18:15:07.551Z,12.74
2022-09-26T18:18:03.939Z,12.75
2022-09-26T18:21:23.500Z,12.87
2022-09-26T18:24:20.015Z,12.86
2022-09-26T18:26:54.171Z,12.89
2022-09-26T18:29:37.485Z,12.89
2022-09-26T18:32:11.003Z,12.89
2022-09-26T18:34:40.850Z,12.89
2022-09-26T18:37:11.840Z,12.94
2022-09-26T18:39:53.614Z,12.91
2022-09-26T18:42:25.403Z,12.85
2022-09-26T18:45:11.516Z,12.83
2022-09-26T18:47:44.828Z,12.78
2022-09-26T18:50:37.069Z,12.69
2022-09-26T18:53:07.946Z,12.74
2022-09-26T18:55:52.981Z,12.66
2022-09-26T18:58:28.272Z,12.70
2022-09-26T19:01:12.996Z,12.73
2022-09-26T19:03:44.522Z,12.75
2022-09-26T19:06:13.720Z,12.76
2022-09-26T19:08:47.582Z,12.75
2022-09-26T19:11:17.410Z,12.75
2022-09-26T19:13:48.969Z,12.79
2022-09-26T19:16:16.003Z,12.83
2022-09-26T19:18:48.344Z,12.71
2022-09-26T19:21:33.392Z,12.74
2022-09-26T19:24:07.911Z,12.75
2022-09-26T19:26:42.907Z,12.75
2022-09-26T19:29:18.348Z,12.76
2022-09-26T19:31:44.980Z,12.74
2022-09-26T19:34:15.901Z,12.75
2022-09-26T19:36:42.761Z,12.73
2022-09-26T19:39:15.076Z,12.72
2022-09-26T19:41:42.086Z,12.73
2022-09-26T19:44:09.156Z,12.73
2022-09-26T19:46:40.876Z,12.73
2022-09-26T19:49:11.342Z,12.68
2022-09-26T19:51:39.782Z,12.70
2022-09-26T19:54:06.771Z,12.68
2022-09-26T19:56:33.742Z,12.69
2022-09-26T19:59:00.287Z,12.69
2022-09-26T20:01:27.426Z,12.72
2022-09-26T20:03:54.274Z,12.70
2022-09-26T20:06:23.638Z,12.66
2022-09-26T20:08:53.229Z,12.71
2022-09-26T20:11:22.354Z,12.70
2022-09-26T20:14:07.546Z,12.69
2022-09-26T20:16:39.751Z,12.62
2022-09-26T20:19:08.328Z,12.65
2022-09-26T20:21:35.011Z,12.66
2022-09-26T20:24:02.266Z,12.67
2022-09-26T20:26:30.608Z,12.64
2022-09-26T20:28:57.450Z,12.63
2022-09-26T20:31:28.338Z,12.64
2022-09-26T20:33:59.175Z,12.63
2022-09-26T20:36:34.089Z,12.67
2022-09-26T20:39:04.170Z,12.65
2022-09-26T20:41:30.611Z,12.61
2022-09-26T20:44:02.041Z,12.59
2022-09-26T20:46:33.705Z,12.56
2022-09-26T20:49:05.535Z,12.59
2022-09-26T20:51:35.567Z,12.53
2022-09-26T20:54:03.303Z,12.51
2022-09-26T20:56:29.921Z,12.51
2022-09-26T20:58:56.513Z,12.54
2022-09-26T21:01:25.903Z,12.56
2022-09-26T21:03:55.141Z,12.54
2022-09-26T21:06:25.029Z,12.53
2022-09-26T21:08:51.586Z,12.54
2022-09-26T21:11:20.839Z,12.51
2022-09-26T21:13:48.460Z,12.46
2022-09-26T21:16:20.032Z,12.48
2022-09-26T21:18:49.900Z,12.46
2022-09-26T21:21:19.318Z,12.48
2022-09-26T21:23:49.939Z,12.47
2022-09-26T21:26:20.824Z,12.44
2022-09-26T21:28:50.270Z,12.43
2022-09-26T21:31:22.540Z,12.44
2022-09-26T21:33:49.765Z,12.48
2022-09-26T21:36:19.338Z,12.49
2022-09-26T21:38:46.868Z,12.49
2022-09-26T21:41:13.506Z,12.50
2022-09-26T21:43:45.190Z,12.49
2022-09-26T21:46:14.505Z,12.46
2022-09-26T21:48:41.218Z,12.47
2022-09-26T21:51:08.697Z,12.44
2022-09-26T21:53:45.882Z,12.46
2022-09-26T21:56:21.224Z,12.46
2022-09-26T21:58:48.650Z,12.39
2022-09-26T22:01:15.372Z,12.37
2022-09-26T22:03:42.144Z,12.36
2022-09-26T22:06:09.998Z,12.40
2022-09-26T22:08:37.191Z,12.37
2022-09-26T22:11:04.537Z,12.38
2022-09-26T22:13:33.198Z,12.41
2022-09-26T22:16:06.016Z,12.41
2022-09-26T22:18:33.806Z,12.38
2022-09-26T22:21:00.711Z,12.41
2022-09-26T22:23:27.358Z,12.39
2022-09-26T22:25:53.997Z,12.42
2022-09-26T22:28:20.565Z,12.41
2022-09-26T22:30:47.189Z,12.44
2022-09-26T22:33:13.868Z,12.43
2022-09-26T22:35:40.473Z,12.37
2022-09-26T22:38:08.412Z,12.39
2022-09-26T22:40:34.961Z,12.45
2022-09-26T22:43:01.476Z,12.46
2022-09-26T22:45:28.410Z,12.44
2022-09-26T22:47:54.942Z,12.45
2022-09-26T22:50:21.379Z,12.41
2022-09-26T22:52:48.349Z,12.46
2022-09-26T22:55:15.279Z,12.47
2022-09-26T22:57:42.103Z,12.44
2022-09-26T23:00:09.358Z,12.40
2022-09-26T23:02:36.170Z,12.41
2022-09-26T23:05:02.786Z,12.45
2022-09-26T23:07:30.147Z,12.44
2022-09-26T23:09:56.956Z,12.43
2022-09-26T23:12:23.427Z,12.40
2022-09-26T23:14:49.896Z,12.34
2022-09-26T23:17:16.576Z,12.30
2022-09-26T23:19:43.880Z,12.24
2022-09-26T23:22:10.496Z,12.15
2022-09-26T23:24:37.206Z,12.09
2022-09-26T23:27:03.935Z,12.00
2022-09-26T23:29:30.578Z,11.93
2022-09-26T23:31:57.828Z,11.88
2022-09-26T23:34:24.526Z,11.85
2022-09-26T23:36:51.002Z,11.86
2022-09-26T23:39:17.631Z,11.81
2022-09-26T23:41:44.224Z,11.80
2022-09-26T23:44:10.648Z,11.83
2022-09-26T23:46:37.124Z,11.85
2022-09-26T23:49:03.638Z,11.81
2022-09-26T23:51:30.392Z,11.76
2022-09-26T23:53:56.931Z,11.76
2022-09-26T23:56:23.696Z,11.77
2022-09-26T23:58:50.186Z,11.72
